sensor_id;sensor_type;location;lat;lon;timestamp;P1;durP1;ratioP1;P2;durP2;ratioP2
35243;SDS011;37916;52.160;21.066;2024-03-23T01:01:54;25.92;;;14.35;;
35243;SDS011;37916;52.160;21.066;2024-03-23T01:11:55;23.52;;;13.48;;
35243;SDS011;37916;52.160;21.066;2024-03-23T01:21:56;26.25;;;15.30;;
35243;SDS011;37916;52.160;21.066;2024-03-23T01:31:57;27.65;;;14.75;;
35243;SDS011;37916;52.160;21.066;2024-03-23T01:41:58;26.45;;;15.57;;
35243;SDS011;37916;52.160;21.066;2024-03-23T01:51:59;32.03;;;15.98;;
35243;SDS011;37916;52.160;21.066;2024-03-23T02:02:00;27.20;;;15.52;;
35243;SDS011;37916;52.160;21.066;2024-03-23T02:12:02;31.60;;;16.00;;
35243;SDS011;37916;52.160;21.066;2024-03-23T02:22:03;27.98;;;15.75;;
35243;SDS011;37916;52.160;21.066;2024-03-23T02:32:04;30.60;;;16.17;;
35243;SDS011;37916;52.160;21.066;2024-03-23T02:42:05;34.13;;;18.20;;
35243;SDS011;37916;52.160;21.066;2024-03-23T02:52:06;33.40;;;17.33;;
35243;SDS011;37916;52.160;21.066;2024-03-23T03:02:07;33.55;;;17.60;;
35243;SDS011;37916;52.160;21.066;2024-03-23T03:12:08;39.15;;;18.02;;
35243;SDS011;37916;52.160;21.066;2024-03-23T03:22:09;37.42;;;18.17;;
35243;SDS011;37916;52.160;21.066;2024-03-23T03:32:10;32.00;;;17.58;;
35243;SDS011;37916;52.160;21.066;2024-03-23T03:42:11;35.05;;;18.52;;
35243;SDS011;37916;52.160;21.066;2024-03-23T03:52:12;39.50;;;19.55;;
35243;SDS011;37916;52.160;21.066;2024-03-23T04:02:13;34.45;;;19.00;;
35243;SDS011;37916;52.160;21.066;2024-03-23T04:12:14;38.13;;;19.38;;
35243;SDS011;37916;52.160;21.066;2024-03-23T04:22:15;34.90;;;19.35;;
35243;SDS011;37916;52.160;21.066;2024-03-23T04:32:17;40.40;;;19.90;;
35243;SDS011;37916;52.160;21.066;2024-03-23T04:42:18;41.17;;;20.42;;
35243;SDS011;37916;52.160;21.066;2024-03-23T04:52:19;41.60;;;20.92;;
35243;SDS011;37916;52.160;21.066;2024-03-23T05:02:20;41.15;;;20.55;;
35243;SDS011;37916;52.160;21.066;2024-03-23T05:12:21;40.55;;;22.10;;
35243;SDS011;37916;52.160;21.066;2024-03-23T05:22:22;39.70;;;21.73;;
35243;SDS011;37916;52.160;21.066;2024-03-23T05:32:23;43.55;;;22.60;;
35243;SDS011;37916;52.160;21.066;2024-03-23T05:42:24;39.28;;;20.83;;
35243;SDS011;37916;52.160;21.066;2024-03-23T05:52:25;40.42;;;22.05;;
35243;SDS011;37916;52.160;21.066;2024-03-23T06:02:27;36.35;;;20.23;;
35243;SDS011;37916;52.160;21.066;2024-03-23T06:12:28;39.13;;;20.63;;
35243;SDS011;37916;52.160;21.066;2024-03-23T06:22:29;34.97;;;20.35;;
35243;SDS011;37916;52.160;21.066;2024-03-23T06:32:30;35.05;;;20.15;;
35243;SDS011;37916;52.160;21.066;2024-03-23T06:42:31;38.85;;;19.42;;
35243;SDS011;37916;52.160;21.066;2024-03-23T06:52:32;33.38;;;19.77;;
35243;SDS011;37916;52.160;21.066;2024-03-23T07:02:33;35.53;;;18.35;;
35243;SDS011;37916;52.160;21.066;2024-03-23T07:12:34;31.85;;;18.73;;
35243;SDS011;37916;52.160;21.066;2024-03-23T07:22:35;33.42;;;18.58;;
35243;SDS011;37916;52.160;21.066;2024-03-23T07:32:36;32.70;;;19.33;;
35243;SDS011;37916;52.160;21.066;2024-03-23T07:42:37;33.95;;;18.95;;
35243;SDS011;37916;52.160;21.066;2024-03-23T07:52:38;33.75;;;19.17;;
35243;SDS011;37916;52.160;21.066;2024-03-23T08:02:39;34.53;;;19.27;;
35243;SDS011;37916;52.160;21.066;2024-03-23T08:12:40;33.17;;;18.63;;
35243;SDS011;37916;52.160;21.066;2024-03-23T08:22:41;31.90;;;18.05;;
35243;SDS011;37916;52.160;21.066;2024-03-23T08:32:42;31.27;;;17.25;;
35243;SDS011;37916;52.160;21.066;2024-03-23T08:42:43;29.02;;;15.30;;
35243;SDS011;37916;52.160;21.066;2024-03-23T08:52:44;23.48;;;15.35;;
35243;SDS011;37916;52.160;21.066;2024-03-23T09:02:47;20.50;;;13.20;;
35243;SDS011;37916;52.160;21.066;2024-03-23T09:12:48;19.77;;;12.65;;
35243;SDS011;37916;52.160;21.066;2024-03-23T09:22:50;17.20;;;11.50;;
35243;SDS011;37916;52.160;21.066;2024-03-23T09:32:51;17.17;;;10.70;;
35243;SDS011;37916;52.160;21.066;2024-03-23T09:42:52;15.35;;;9.70;;
35243;SDS011;37916;52.160;21.066;2024-03-23T09:52:53;19.88;;;10.43;;
35243;SDS011;37916;52.160;21.066;2024-03-23T10:03:00;14.90;;;9.32;;
35243;SDS011;37916;52.160;21.066;2024-03-23T10:13:02;14.52;;;8.85;;
35243;SDS011;37916;52.160;21.066;2024-03-23T10:23:03;14.48;;;9.45;;
35243;SDS011;37916;52.160;21.066;2024-03-23T10:33:10;14.93;;;8.73;;
35243;SDS011;37916;52.160;21.066;2024-03-23T10:43:11;15.45;;;7.60;;
35243;SDS011;37916;52.160;21.066;2024-03-23T10:53:13;11.57;;;7.63;;
35243;SDS011;37916;52.160;21.066;2024-03-23T11:03:33;12.52;;;7.70;;
35243;SDS011;37916;52.160;21.066;2024-03-23T11:13:36;9.70;;;5.95;;
35243;SDS011;37916;52.160;21.066;2024-03-23T11:23:37;12.85;;;7.68;;
35243;SDS011;37916;52.160;21.066;2024-03-23T11:33:39;9.52;;;5.82;;
35243;SDS011;37916;52.160;21.066;2024-03-23T11:43:41;9.57;;;6.30;;
35243;SDS011;37916;52.160;21.066;2024-03-23T11:53:42;11.50;;;6.35;;
35243;SDS011;37916;52.160;21.066;2024-03-23T12:03:44;9.48;;;5.82;;
35243;SDS011;37916;52.160;21.066;2024-03-23T12:13:45;7.57;;;5.53;;
35243;SDS011;37916;52.160;21.066;2024-03-23T12:23:48;10.10;;;5.90;;
35243;SDS011;37916;52.160;21.066;2024-03-23T12:33:50;9.10;;;5.20;;
35243;SDS011;37916;52.160;21.066;2024-03-23T12:43:52;9.18;;;5.78;;
35243;SDS011;37916;52.160;21.066;2024-03-23T12:53:53;10.25;;;4.85;;
35243;SDS011;37916;52.160;21.066;2024-03-23T13:03:54;8.05;;;5.43;;
35243;SDS011;37916;52.160;21.066;2024-03-23T13:13:55;9.85;;;5.47;;
35243;SDS011;37916;52.160;21.066;2024-03-23T13:23:56;10.73;;;6.95;;
35243;SDS011;37916;52.160;21.066;2024-03-23T13:33:57;14.15;;;8.70;;
35243;SDS011;37916;52.160;21.066;2024-03-23T13:43:58;10.48;;;6.18;;
35243;SDS011;37916;52.160;21.066;2024-03-23T13:54:00;7.45;;;4.55;;
35243;SDS011;37916;52.160;21.066;2024-03-23T14:04:01;7.95;;;5.03;;
35243;SDS011;37916;52.160;21.066;2024-03-23T14:24:13;8.23;;;4.80;;
35243;SDS011;37916;52.160;21.066;2024-03-23T14:34:14;11.27;;;5.10;;
35243;SDS011;37916;52.160;21.066;2024-03-23T14:44:15;8.95;;;4.80;;
35243;SDS011;37916;52.160;21.066;2024-03-23T14:54:16;7.60;;;5.00;;
35243;SDS011;37916;52.160;21.066;2024-03-23T15:04:17;13.18;;;7.05;;
35243;SDS011;37916;52.160;21.066;2024-03-23T15:14:19;11.75;;;7.40;;
35243;SDS011;37916;52.160;21.066;2024-03-23T15:24:20;16.23;;;6.97;;
35243;SDS011;37916;52.160;21.066;2024-03-23T15:34:22;13.32;;;8.10;;
35243;SDS011;37916;52.160;21.066;2024-03-23T15:44:23;18.98;;;11.50;;
35243;SDS011;37916;52.160;21.066;2024-03-23T15:54:24;21.13;;;13.10;;
35243;SDS011;37916;52.160;21.066;2024-03-23T16:04:25;24.15;;;14.40;;
35243;SDS011;37916;52.160;21.066;2024-03-23T16:14:26;23.90;;;14.65;;
35243;SDS011;37916;52.160;21.066;2024-03-23T16:24:27;18.73;;;12.70;;
35243;SDS011;37916;52.160;21.066;2024-03-23T16:34:28;15.82;;;11.00;;
35243;SDS011;37916;52.160;21.066;2024-03-23T16:44:29;14.07;;;9.05;;
35243;SDS011;37916;52.160;21.066;2024-03-23T16:54:30;12.52;;;7.68;;
35243;SDS011;37916;52.160;21.066;2024-03-23T17:04:31;12.65;;;8.13;;
35243;SDS011;37916;52.160;21.066;2024-03-23T17:14:32;9.57;;;7.00;;
35243;SDS011;37916;52.160;21.066;2024-03-23T17:24:33;11.02;;;7.30;;
35243;SDS011;37916;52.160;21.066;2024-03-23T17:44:51;11.05;;;6.57;;
35243;SDS011;37916;52.160;21.066;2024-03-23T18:05:06;11.15;;;7.05;;
35243;SDS011;37916;52.160;21.066;2024-03-23T18:25:18;11.60;;;8.55;;
35243;SDS011;37916;52.160;21.066;2024-03-23T18:35:20;9.90;;;7.18;;
35243;SDS011;37916;52.160;21.066;2024-03-23T18:55:32;5.20;;;3.50;;
35243;SDS011;37916;52.160;21.066;2024-03-23T19:05:33;7.20;;;2.45;;
35243;SDS011;37916;52.160;21.066;2024-03-23T19:15:34;4.20;;;2.45;;
35243;SDS011;37916;52.160;21.066;2024-03-23T19:25:35;1.30;;;0.73;;
35243;SDS011;37916;52.160;21.066;2024-03-23T19:35:38;1.95;;;1.08;;
35243;SDS011;37916;52.160;21.066;2024-03-23T19:45:52;2.60;;;0.55;;
35243;SDS011;37916;52.160;21.066;2024-03-23T19:55:56;2.03;;;1.05;;
35243;SDS011;37916;52.160;21.066;2024-03-23T20:05:57;1.00;;;0.68;;
35243;SDS011;37916;52.160;21.066;2024-03-23T20:15:58;3.08;;;1.10;;
35243;SDS011;37916;52.160;21.066;2024-03-23T20:26:02;2.92;;;1.00;;
35243;SDS011;37916;52.160;21.066;2024-03-23T20:36:08;2.67;;;1.38;;
35243;SDS011;37916;52.160;21.066;2024-03-23T20:46:15;4.22;;;2.08;;
35243;SDS011;37916;52.160;21.066;2024-03-23T20:56:16;3.38;;;1.42;;
35243;SDS011;37916;52.160;21.066;2024-03-23T21:06:17;6.10;;;1.90;;
35243;SDS011;37916;52.160;21.066;2024-03-23T21:16:19;4.65;;;2.42;;
35243;SDS011;37916;52.160;21.066;2024-03-23T21:26:20;6.07;;;2.05;;
35243;SDS011;37916;52.160;21.066;2024-03-23T21:36:21;3.00;;;1.63;;
35243;SDS011;37916;52.160;21.066;2024-03-23T21:46:22;4.60;;;2.25;;
35243;SDS011;37916;52.160;21.066;2024-03-23T21:56:23;2.65;;;1.50;;
35243;SDS011;37916;52.160;21.066;2024-03-23T22:06:24;5.20;;;2.25;;
35243;SDS011;37916;52.160;21.066;2024-03-23T22:16:25;6.43;;;2.88;;
35243;SDS011;37916;52.160;21.066;2024-03-23T22:26:26;9.95;;;3.17;;
35243;SDS011;37916;52.160;21.066;2024-03-23T22:36:27;5.22;;;2.58;;
35243;SDS011;37916;52.160;21.066;2024-03-23T22:46:28;4.55;;;2.50;;
35243;SDS011;37916;52.160;21.066;2024-03-23T22:56:29;6.65;;;2.50;;
35243;SDS011;37916;52.160;21.066;2024-03-23T23:06:30;5.07;;;2.92;;
35243;SDS011;37916;52.160;21.066;2024-03-23T23:16:31;5.80;;;2.92;;
35243;SDS011;37916;52.160;21.066;2024-03-23T23:26:33;8.40;;;3.67;;
35243;SDS011;37916;52.160;21.066;2024-03-23T23:36:34;8.50;;;4.75;;
35243;SDS011;37916;52.160;21.066;2024-03-23T23:46:35;7.95;;;4.85;;
35243;SDS011;37916;52.160;21.066;2024-03-23T23:56:36;7.00;;;4.45;;
